Aeroporto :
LOGIN :

Iscrizione | Disclaimer

   EN    FR    IT 

 










Sommario :    VFR   VFR Marginale   IFR   IFR Intensivo   IFR Molto Intensivo
Visibilità : 
Base nubi : 
>= 8 km
>= 3000ft
5 / 8 km
1000 / 3000 ft
1500m / 5 km
500 / 1000 ft
800 / 1500m
200 / 500 ft
< 800m
< 200 ft
Simboli :   Temporali  Nebbia  Neve Forte  Precipitazioni Forti  Vento > 20 kt
SIGMETs :   Varie  Temporali  Ghiacco  Turbolenza  Onda orograficha  Ceneri Vulcaniche






- Altitudine del aeroporto : 885 ft
- Codice IATA : BAS


LFSB - Bale-Mulhouse

ULTIMO METAR :
  • 210900Z VRB03KT 0500 R15/0650N R33/0600N FG VV/// 02/02 Q1010 NOSIG

METARs OBSOLETI :
  • 210830Z VRB01KT 0350 R15/0375N R33/0550N FG VV/// 02/02 Q1010 NOSIG
  • 210800Z 00000KT 0350 R15/0350N R33/0450N FG VV/// 02/02 Q1010 NOSIG
  • 210730Z VRB02KT 0500 R15/0550U R33/0450N FG VV/// 02/02 Q1010 NOSIG
  • 210700Z VRB02KT 0500 R15/0600N R33/0500D FG VV/// 02/02 Q1010 NOSIG
  • 210630Z 00000KT 0600 R15/1300N R33/1400D FG VV/// 01/01 Q1010 NOSIG
  • 210600Z VRB01KT 0500 R15/1300U R33/0900U FG VV/// 01/01 Q1010 NOSIG

TAF TAF LFSB
Valido dal 21 a 06 ore il 22 a 06 ore UTC


210500Z 2106/2206 VRB02KT 0500 FG VV///
BECMG 2109/2111 4000 BR BKN003
TEMPO 2111/2116 7000 FEW010
TEMPO 2118/2202 0500 FG VV///
BECMG 2202/2205 15007KT 9999 NSW BKN050
Met : +33 3 89 90 31 11



MetMap, La meteo Aeronautica in un colpo d'occhio ! - Copyright ORBIFLY Dicembre 2007 - Disclaimer

ORBIFLY MET'MAP TEAM :

Programmazione e sviluppo : Alexandra Zaïnal
Concezione e sviluppo : Baudouin d'Aumeries
Co-Programmazione e sviluppo : Marc-Olivier Méhu
Supporto tecnico e logistico : Manuel Goepfert
Aiuto per la traduzione : Arnaldo La Scala

Contatto : metmap@orbifly.com




FONTI E CREDITI :

   NOAA